sensor_id;sensor_type;location;lat;lon;timestamp;P1;durP1;ratioP1;P2;durP2;ratioP2
74465;SDS011;62916;50.044;15.938;2022-12-01T00:00:16;6.70;;;5.10;;
74465;SDS011;62916;50.044;15.938;2022-12-01T00:02:47;5.90;;;4.70;;
74465;SDS011;62916;50.044;15.938;2022-12-01T00:05:18;5.40;;;4.80;;
74465;SDS011;62916;50.044;15.938;2022-12-01T00:07:49;7.30;;;5.30;;
74465;SDS011;62916;50.044;15.938;2022-12-01T00:10:20;6.60;;;5.20;;
74465;SDS011;62916;50.044;15.938;2022-12-01T00:12:53;5.40;;;4.40;;
74465;SDS011;62916;50.044;15.938;2022-12-01T00:15:26;6.40;;;4.30;;
74465;SDS011;62916;50.044;15.938;2022-12-01T00:17:58;5.30;;;4.30;;
74465;SDS011;62916;50.044;15.938;2022-12-01T00:20:29;4.70;;;4.30;;
74465;SDS011;62916;50.044;15.938;2022-12-01T00:23:02;5.50;;;4.80;;
74465;SDS011;62916;50.044;15.938;2022-12-01T00:25:33;6.50;;;4.60;;
74465;SDS011;62916;50.044;15.938;2022-12-01T00:28:04;6.10;;;5.50;;
74465;SDS011;62916;50.044;15.938;2022-12-01T00:30:35;5.60;;;4.40;;
74465;SDS011;62916;50.044;15.938;2022-12-01T00:33:06;5.60;;;4.60;;
74465;SDS011;62916;50.044;15.938;2022-12-01T00:35:37;6.90;;;4.80;;
74465;SDS011;62916;50.044;15.938;2022-12-01T00:38:08;6.20;;;4.70;;
74465;SDS011;62916;50.044;15.938;2022-12-01T00:40:38;5.60;;;4.50;;
74465;SDS011;62916;50.044;15.938;2022-12-01T00:43:10;6.30;;;4.70;;
74465;SDS011;62916;50.044;15.938;2022-12-01T00:45:41;6.00;;;4.50;;
74465;SDS011;62916;50.044;15.938;2022-12-01T00:48:12;5.60;;;4.60;;
74465;SDS011;62916;50.044;15.938;2022-12-01T00:50:42;5.90;;;4.60;;
74465;SDS011;62916;50.044;15.938;2022-12-01T00:53:13;5.50;;;4.60;;
74465;SDS011;62916;50.044;15.938;2022-12-01T00:55:44;7.30;;;5.10;;
74465;SDS011;62916;50.044;15.938;2022-12-01T00:58:15;6.30;;;4.30;;
74465;SDS011;62916;50.044;15.938;2022-12-01T01:00:45;5.00;;;4.10;;
74465;SDS011;62916;50.044;15.938;2022-12-01T01:03:17;5.10;;;4.30;;
74465;SDS011;62916;50.044;15.938;2022-12-01T01:05:48;5.60;;;4.50;;
74465;SDS011;62916;50.044;15.938;2022-12-01T01:08:18;4.90;;;4.30;;
74465;SDS011;62916;50.044;15.938;2022-12-01T01:10:49;5.70;;;4.30;;
74465;SDS011;62916;50.044;15.938;2022-12-01T01:13:20;6.00;;;4.50;;
74465;SDS011;62916;50.044;15.938;2022-12-01T01:15:56;6.30;;;4.70;;
74465;SDS011;62916;50.044;15.938;2022-12-01T01:18:28;6.00;;;4.20;;
74465;SDS011;62916;50.044;15.938;2022-12-01T01:21:00;6.40;;;4.50;;
74465;SDS011;62916;50.044;15.938;2022-12-01T01:23:32;5.20;;;4.20;;
74465;SDS011;62916;50.044;15.938;2022-12-01T01:26:04;5.00;;;4.10;;
74465;SDS011;62916;50.044;15.938;2022-12-01T01:28:36;4.70;;;4.10;;
74465;SDS011;62916;50.044;15.938;2022-12-01T01:31:09;5.70;;;4.20;;
74465;SDS011;62916;50.044;15.938;2022-12-01T01:33:42;5.50;;;4.50;;
74465;SDS011;62916;50.044;15.938;2022-12-01T01:36:13;6.20;;;5.20;;
74465;SDS011;62916;50.044;15.938;2022-12-01T01:38:45;5.80;;;4.30;;
74465;SDS011;62916;50.044;15.938;2022-12-01T01:41:18;5.60;;;4.30;;
74465;SDS011;62916;50.044;15.938;2022-12-01T01:43:50;5.80;;;4.50;;
74465;SDS011;62916;50.044;15.938;2022-12-01T01:46:23;6.10;;;4.30;;
74465;SDS011;62916;50.044;15.938;2022-12-01T01:48:56;5.30;;;4.00;;
74465;SDS011;62916;50.044;15.938;2022-12-01T01:51:31;5.70;;;3.80;;
74465;SDS011;62916;50.044;15.938;2022-12-01T01:54:05;5.50;;;4.10;;
74465;SDS011;62916;50.044;15.938;2022-12-01T01:56:42;5.60;;;4.50;;
74465;SDS011;62916;50.044;15.938;2022-12-01T01:59:15;6.00;;;3.90;;
74465;SDS011;62916;50.044;15.938;2022-12-01T02:01:54;5.40;;;4.30;;
74465;SDS011;62916;50.044;15.938;2022-12-01T02:04:29;5.00;;;4.30;;
74465;SDS011;62916;50.044;15.938;2022-12-01T02:07:01;4.90;;;4.30;;
74465;SDS011;62916;50.044;15.938;2022-12-01T02:09:32;5.60;;;4.10;;
74465;SDS011;62916;50.044;15.938;2022-12-01T02:12:06;5.80;;;4.40;;
74465;SDS011;62916;50.044;15.938;2022-12-01T02:14:52;5.30;;;4.30;;
74465;SDS011;62916;50.044;15.938;2022-12-01T02:17:33;5.40;;;4.10;;
74465;SDS011;62916;50.044;15.938;2022-12-01T02:20:34;4.80;;;4.10;;
74465;SDS011;62916;50.044;15.938;2022-12-01T02:26:30;5.10;;;4.40;;
74465;SDS011;62916;50.044;15.938;2022-12-01T02:29:12;6.10;;;4.80;;
74465;SDS011;62916;50.044;15.938;2022-12-01T02:32:06;5.60;;;4.60;;
74465;SDS011;62916;50.044;15.938;2022-12-01T02:34:45;5.10;;;4.20;;
74465;SDS011;62916;50.044;15.938;2022-12-01T02:37:30;5.70;;;4.70;;
74465;SDS011;62916;50.044;15.938;2022-12-01T02:40:08;4.90;;;4.20;;
74465;SDS011;62916;50.044;15.938;2022-12-01T02:45:24;6.00;;;4.40;;
74465;SDS011;62916;50.044;15.938;2022-12-01T02:48:01;4.90;;;4.20;;
74465;SDS011;62916;50.044;15.938;2022-12-01T02:50:37;5.80;;;4.50;;
74465;SDS011;62916;50.044;15.938;2022-12-01T02:53:09;6.60;;;4.50;;
74465;SDS011;62916;50.044;15.938;2022-12-01T02:55:47;6.00;;;4.40;;
74465;SDS011;62916;50.044;15.938;2022-12-01T02:58:19;5.80;;;4.70;;
74465;SDS011;62916;50.044;15.938;2022-12-01T03:01:02;5.70;;;4.80;;
74465;SDS011;62916;50.044;15.938;2022-12-01T03:03:57;4.80;;;4.30;;
74465;SDS011;62916;50.044;15.938;2022-12-01T03:06:41;6.00;;;4.20;;
74465;SDS011;62916;50.044;15.938;2022-12-01T03:09:22;4.90;;;3.60;;
74465;SDS011;62916;50.044;15.938;2022-12-01T03:12:03;5.60;;;4.10;;
74465;SDS011;62916;50.044;15.938;2022-12-01T03:14:43;6.10;;;4.40;;
74465;SDS011;62916;50.044;15.938;2022-12-01T03:17:22;4.90;;;4.10;;
74465;SDS011;62916;50.044;15.938;2022-12-01T03:19:57;4.90;;;4.00;;
74465;SDS011;62916;50.044;15.938;2022-12-01T03:22:40;4.90;;;4.40;;
74465;SDS011;62916;50.044;15.938;2022-12-01T03:25:14;5.00;;;3.90;;
74465;SDS011;62916;50.044;15.938;2022-12-01T03:27:47;5.10;;;4.40;;
74465;SDS011;62916;50.044;15.938;2022-12-01T03:30:43;6.40;;;4.60;;
74465;SDS011;62916;50.044;15.938;2022-12-01T03:33:16;5.40;;;3.90;;
74465;SDS011;62916;50.044;15.938;2022-12-01T03:35:54;5.10;;;4.00;;
74465;SDS011;62916;50.044;15.938;2022-12-01T03:38:29;4.70;;;4.20;;
74465;SDS011;62916;50.044;15.938;2022-12-01T03:41:04;5.00;;;4.30;;
74465;SDS011;62916;50.044;15.938;2022-12-01T03:43:39;5.20;;;4.00;;
74465;SDS011;62916;50.044;15.938;2022-12-01T03:46:13;5.40;;;4.10;;
74465;SDS011;62916;50.044;15.938;2022-12-01T03:48:50;5.00;;;4.10;;
74465;SDS011;62916;50.044;15.938;2022-12-01T03:51:23;5.40;;;4.40;;
74465;SDS011;62916;50.044;15.938;2022-12-01T03:54:01;4.90;;;4.00;;
74465;SDS011;62916;50.044;15.938;2022-12-01T03:56:36;5.10;;;4.20;;
74465;SDS011;62916;50.044;15.938;2022-12-01T03:59:12;4.80;;;3.90;;
74465;SDS011;62916;50.044;15.938;2022-12-01T04:01:45;5.50;;;4.00;;
74465;SDS011;62916;50.044;15.938;2022-12-01T04:04:16;5.50;;;4.20;;
74465;SDS011;62916;50.044;15.938;2022-12-01T04:06:47;4.60;;;4.00;;
74465;SDS011;62916;50.044;15.938;2022-12-01T04:09:19;7.40;;;4.10;;
74465;SDS011;62916;50.044;15.938;2022-12-01T04:11:50;6.20;;;3.70;;
74465;SDS011;62916;50.044;15.938;2022-12-01T04:14:38;5.30;;;3.90;;
74465;SDS011;62916;50.044;15.938;2022-12-01T04:17:09;5.80;;;4.10;;
74465;SDS011;62916;50.044;15.938;2022-12-01T04:19:39;5.40;;;4.10;;
74465;SDS011;62916;50.044;15.938;2022-12-01T04:22:10;5.60;;;3.80;;
74465;SDS011;62916;50.044;15.938;2022-12-01T04:24:41;5.90;;;4.20;;
74465;SDS011;62916;50.044;15.938;2022-12-01T04:27:12;5.00;;;3.90;;
74465;SDS011;62916;50.044;15.938;2022-12-01T04:29:42;4.90;;;4.40;;
74465;SDS011;62916;50.044;15.938;2022-12-01T04:32:14;4.60;;;3.60;;
74465;SDS011;62916;50.044;15.938;2022-12-01T04:34:45;5.90;;;4.40;;
74465;SDS011;62916;50.044;15.938;2022-12-01T04:37:15;5.20;;;4.00;;
74465;SDS011;62916;50.044;15.938;2022-12-01T04:39:47;5.90;;;4.20;;
74465;SDS011;62916;50.044;15.938;2022-12-01T04:42:18;5.70;;;4.40;;
74465;SDS011;62916;50.044;15.938;2022-12-01T04:44:48;6.70;;;4.70;;
74465;SDS011;62916;50.044;15.938;2022-12-01T04:47:19;6.50;;;4.70;;
74465;SDS011;62916;50.044;15.938;2022-12-01T04:49:50;7.80;;;5.30;;
74465;SDS011;62916;50.044;15.938;2022-12-01T04:52:21;9.20;;;5.30;;
74465;SDS011;62916;50.044;15.938;2022-12-01T04:54:57;6.40;;;5.20;;
74465;SDS011;62916;50.044;15.938;2022-12-01T04:57:27;8.20;;;5.20;;
74465;SDS011;62916;50.044;15.938;2022-12-01T04:59:58;8.50;;;5.10;;
74465;SDS011;62916;50.044;15.938;2022-12-01T05:02:30;6.80;;;4.60;;
74465;SDS011;62916;50.044;15.938;2022-12-01T05:05:01;9.50;;;5.60;;
74465;SDS011;62916;50.044;15.938;2022-12-01T05:07:33;8.70;;;4.90;;
74465;SDS011;62916;50.044;15.938;2022-12-01T05:10:05;28.30;;;9.70;;
74465;SDS011;62916;50.044;15.938;2022-12-01T05:12:36;54.80;;;14.40;;
74465;SDS011;62916;50.044;15.938;2022-12-01T05:15:08;70.00;;;17.20;;
74465;SDS011;62916;50.044;15.938;2022-12-01T05:17:39;65.30;;;16.50;;
74465;SDS011;62916;50.044;15.938;2022-12-01T05:20:13;59.30;;;16.00;;
74465;SDS011;62916;50.044;15.938;2022-12-01T05:23:06;57.20;;;14.50;;
74465;SDS011;62916;50.044;15.938;2022-12-01T05:25:43;57.40;;;14.90;;
74465;SDS011;62916;50.044;15.938;2022-12-01T05:28:14;51.00;;;13.70;;
74465;SDS011;62916;50.044;15.938;2022-12-01T05:30:44;58.90;;;14.20;;
74465;SDS011;62916;50.044;15.938;2022-12-01T05:33:16;57.10;;;15.40;;
74465;SDS011;62916;50.044;15.938;2022-12-01T05:35:47;47.00;;;12.70;;
74465;SDS011;62916;50.044;15.938;2022-12-01T05:38:19;55.40;;;13.30;;
74465;SDS011;62916;50.044;15.938;2022-12-01T05:40:50;49.60;;;13.50;;
74465;SDS011;62916;50.044;15.938;2022-12-01T05:43:22;52.00;;;13.50;;
74465;SDS011;62916;50.044;15.938;2022-12-01T05:45:56;48.40;;;12.50;;
74465;SDS011;62916;50.044;15.938;2022-12-01T05:48:28;50.70;;;12.60;;
74465;SDS011;62916;50.044;15.938;2022-12-01T05:51:00;45.90;;;13.50;;
74465;SDS011;62916;50.044;15.938;2022-12-01T05:53:37;46.40;;;12.60;;
74465;SDS011;62916;50.044;15.938;2022-12-01T05:56:09;43.80;;;12.40;;
74465;SDS011;62916;50.044;15.938;2022-12-01T05:58:40;48.00;;;12.90;;
74465;SDS011;62916;50.044;15.938;2022-12-01T06:01:10;38.70;;;10.70;;
74465;SDS011;62916;50.044;15.938;2022-12-01T06:03:42;36.70;;;11.20;;
74465;SDS011;62916;50.044;15.938;2022-12-01T06:06:13;41.40;;;11.80;;
74465;SDS011;62916;50.044;15.938;2022-12-01T06:08:44;37.40;;;11.90;;
74465;SDS011;62916;50.044;15.938;2022-12-01T06:11:14;35.50;;;11.70;;
74465;SDS011;62916;50.044;15.938;2022-12-01T06:13:45;39.60;;;10.50;;
74465;SDS011;62916;50.044;15.938;2022-12-01T06:16:16;36.80;;;11.80;;
74465;SDS011;62916;50.044;15.938;2022-12-01T06:18:47;31.20;;;10.30;;
74465;SDS011;62916;50.044;15.938;2022-12-01T06:21:18;38.00;;;10.70;;
74465;SDS011;62916;50.044;15.938;2022-12-01T06:23:48;34.00;;;10.20;;
74465;SDS011;62916;50.044;15.938;2022-12-01T06:26:19;33.00;;;10.60;;
74465;SDS011;62916;50.044;15.938;2022-12-01T06:28:50;32.10;;;10.00;;
74465;SDS011;62916;50.044;15.938;2022-12-01T06:31:21;28.10;;;9.80;;
74465;SDS011;62916;50.044;15.938;2022-12-01T06:33:52;31.90;;;10.40;;
74465;SDS011;62916;50.044;15.938;2022-12-01T06:36:23;31.30;;;10.40;;
74465;SDS011;62916;50.044;15.938;2022-12-01T06:38:53;27.30;;;9.80;;
74465;SDS011;62916;50.044;15.938;2022-12-01T06:41:24;27.90;;;10.50;;
74465;SDS011;62916;50.044;15.938;2022-12-01T06:43:55;27.50;;;10.20;;
74465;SDS011;62916;50.044;15.938;2022-12-01T06:46:26;28.80;;;9.50;;
74465;SDS011;62916;50.044;15.938;2022-12-01T06:48:57;27.00;;;9.10;;
74465;SDS011;62916;50.044;15.938;2022-12-01T06:51:28;27.40;;;9.50;;
74465;SDS011;62916;50.044;15.938;2022-12-01T06:54:01;26.30;;;9.10;;
74465;SDS011;62916;50.044;15.938;2022-12-01T06:56:32;24.90;;;8.60;;
74465;SDS011;62916;50.044;15.938;2022-12-01T06:59:03;29.50;;;9.50;;
74465;SDS011;62916;50.044;15.938;2022-12-01T07:01:34;22.80;;;8.70;;
74465;SDS011;62916;50.044;15.938;2022-12-01T07:04:06;24.30;;;8.70;;
74465;SDS011;62916;50.044;15.938;2022-12-01T07:06:36;22.40;;;8.10;;
74465;SDS011;62916;50.044;15.938;2022-12-01T07:09:07;24.50;;;8.50;;
74465;SDS011;62916;50.044;15.938;2022-12-01T07:11:38;24.30;;;8.40;;
74465;SDS011;62916;50.044;15.938;2022-12-01T07:14:12;24.00;;;8.30;;
74465;SDS011;62916;50.044;15.938;2022-12-01T07:16:48;21.50;;;7.70;;
74465;SDS011;62916;50.044;15.938;2022-12-01T07:19:19;25.60;;;8.70;;
74465;SDS011;62916;50.044;15.938;2022-12-01T07:21:49;25.40;;;8.80;;
74465;SDS011;62916;50.044;15.938;2022-12-01T07:24:20;21.70;;;8.20;;
74465;SDS011;62916;50.044;15.938;2022-12-01T07:26:51;25.00;;;8.40;;
74465;SDS011;62916;50.044;15.938;2022-12-01T07:29:22;23.80;;;8.00;;
74465;SDS011;62916;50.044;15.938;2022-12-01T07:31:52;20.50;;;9.10;;
74465;SDS011;62916;50.044;15.938;2022-12-01T07:34:23;22.30;;;8.10;;
74465;SDS011;62916;50.044;15.938;2022-12-01T07:36:54;16.60;;;7.40;;
74465;SDS011;62916;50.044;15.938;2022-12-01T07:39:25;18.20;;;7.70;;
74465;SDS011;62916;50.044;15.938;2022-12-01T07:41:55;19.00;;;7.80;;
74465;SDS011;62916;50.044;15.938;2022-12-01T07:44:26;15.70;;;7.40;;
74465;SDS011;62916;50.044;15.938;2022-12-01T07:46:57;17.60;;;7.50;;
74465;SDS011;62916;50.044;15.938;2022-12-01T07:49:28;19.20;;;7.80;;
74465;SDS011;62916;50.044;15.938;2022-12-01T07:51:58;21.20;;;7.40;;
74465;SDS011;62916;50.044;15.938;2022-12-01T07:54:29;16.00;;;6.70;;
74465;SDS011;62916;50.044;15.938;2022-12-01T07:57:00;18.80;;;8.50;;
74465;SDS011;62916;50.044;15.938;2022-12-01T07:59:31;15.30;;;6.80;;
74465;SDS011;62916;50.044;15.938;2022-12-01T08:02:02;14.00;;;6.60;;
74465;SDS011;62916;50.044;15.938;2022-12-01T08:04:33;16.40;;;6.70;;
74465;SDS011;62916;50.044;15.938;2022-12-01T08:07:04;17.50;;;7.20;;
74465;SDS011;62916;50.044;15.938;2022-12-01T08:09:35;15.80;;;6.90;;
74465;SDS011;62916;50.044;15.938;2022-12-01T08:12:06;14.00;;;6.30;;
74465;SDS011;62916;50.044;15.938;2022-12-01T08:14:37;15.80;;;7.40;;
74465;SDS011;62916;50.044;15.938;2022-12-01T08:17:08;16.30;;;6.80;;
74465;SDS011;62916;50.044;15.938;2022-12-01T08:19:38;15.70;;;7.60;;
74465;SDS011;62916;50.044;15.938;2022-12-01T08:22:09;16.00;;;7.30;;
74465;SDS011;62916;50.044;15.938;2022-12-01T08:24:40;15.60;;;7.20;;
74465;SDS011;62916;50.044;15.938;2022-12-01T08:27:11;15.70;;;6.20;;
74465;SDS011;62916;50.044;15.938;2022-12-01T08:29:41;14.30;;;6.40;;
74465;SDS011;62916;50.044;15.938;2022-12-01T08:32:13;13.50;;;5.90;;
74465;SDS011;62916;50.044;15.938;2022-12-01T08:34:45;12.50;;;6.20;;
74465;SDS011;62916;50.044;15.938;2022-12-01T08:37:20;12.00;;;6.20;;
74465;SDS011;62916;50.044;15.938;2022-12-01T08:39:51;11.40;;;5.50;;
74465;SDS011;62916;50.044;15.938;2022-12-01T08:42:21;12.20;;;6.40;;
74465;SDS011;62916;50.044;15.938;2022-12-01T08:44:52;14.20;;;6.20;;
74465;SDS011;62916;50.044;15.938;2022-12-01T08:47:23;11.10;;;5.60;;
74465;SDS011;62916;50.044;15.938;2022-12-01T08:49:55;11.70;;;6.60;;
74465;SDS011;62916;50.044;15.938;2022-12-01T08:52:26;13.10;;;6.40;;
74465;SDS011;62916;50.044;15.938;2022-12-01T08:55:01;13.80;;;6.60;;
74465;SDS011;62916;50.044;15.938;2022-12-01T08:57:32;12.10;;;5.90;;
74465;SDS011;62916;50.044;15.938;2022-12-01T09:00:04;14.90;;;6.10;;
74465;SDS011;62916;50.044;15.938;2022-12-01T09:02:36;13.50;;;5.80;;
74465;SDS011;62916;50.044;15.938;2022-12-01T09:05:07;12.00;;;6.00;;
74465;SDS011;62916;50.044;15.938;2022-12-01T09:07:39;9.20;;;5.50;;
74465;SDS011;62916;50.044;15.938;2022-12-01T09:10:12;9.90;;;5.60;;
74465;SDS011;62916;50.044;15.938;2022-12-01T09:12:43;13.00;;;6.40;;
74465;SDS011;62916;50.044;15.938;2022-12-01T09:15:14;11.20;;;6.00;;
74465;SDS011;62916;50.044;15.938;2022-12-01T09:17:45;12.00;;;6.40;;
74465;SDS011;62916;50.044;15.938;2022-12-01T09:20:15;11.70;;;5.50;;
74465;SDS011;62916;50.044;15.938;2022-12-01T09:22:46;9.90;;;6.30;;
74465;SDS011;62916;50.044;15.938;2022-12-01T09:25:17;11.10;;;6.00;;
74465;SDS011;62916;50.044;15.938;2022-12-01T09:27:48;11.90;;;6.00;;
74465;SDS011;62916;50.044;15.938;2022-12-01T09:30:19;11.40;;;5.70;;
74465;SDS011;62916;50.044;15.938;2022-12-01T09:32:50;10.70;;;5.70;;
74465;SDS011;62916;50.044;15.938;2022-12-01T09:35:21;11.30;;;5.40;;
74465;SDS011;62916;50.044;15.938;2022-12-01T09:37:52;9.70;;;5.10;;
74465;SDS011;62916;50.044;15.938;2022-12-01T09:40:22;9.50;;;5.10;;
74465;SDS011;62916;50.044;15.938;2022-12-01T09:42:58;11.00;;;5.80;;
74465;SDS011;62916;50.044;15.938;2022-12-01T09:48:04;8.70;;;5.20;;
74465;SDS011;62916;50.044;15.938;2022-12-01T09:50:42;10.10;;;5.30;;
74465;SDS011;62916;50.044;15.938;2022-12-01T09:53:16;10.60;;;5.30;;
74465;SDS011;62916;50.044;15.938;2022-12-01T09:55:50;12.70;;;5.20;;
74465;SDS011;62916;50.044;15.938;2022-12-01T09:58:27;9.20;;;5.10;;
74465;SDS011;62916;50.044;15.938;2022-12-01T10:01:00;9.20;;;5.20;;
74465;SDS011;62916;50.044;15.938;2022-12-01T10:03:32;9.90;;;5.00;;
74465;SDS011;62916;50.044;15.938;2022-12-01T10:06:12;9.50;;;5.60;;
74465;SDS011;62916;50.044;15.938;2022-12-01T10:08:59;10.40;;;6.40;;
74465;SDS011;62916;50.044;15.938;2022-12-01T10:11:39;8.70;;;5.60;;
74465;SDS011;62916;50.044;15.938;2022-12-01T10:14:14;10.40;;;5.20;;
74465;SDS011;62916;50.044;15.938;2022-12-01T10:16:50;9.70;;;5.30;;
74465;SDS011;62916;50.044;15.938;2022-12-01T10:19:28;8.60;;;5.10;;
74465;SDS011;62916;50.044;15.938;2022-12-01T10:22:12;9.70;;;5.00;;
74465;SDS011;62916;50.044;15.938;2022-12-01T10:25:04;8.90;;;5.10;;
74465;SDS011;62916;50.044;15.938;2022-12-01T10:27:50;9.90;;;5.90;;
74465;SDS011;62916;50.044;15.938;2022-12-01T10:30:32;8.40;;;4.70;;
74465;SDS011;62916;50.044;15.938;2022-12-01T10:33:12;8.20;;;5.00;;
74465;SDS011;62916;50.044;15.938;2022-12-01T10:35:50;8.90;;;5.10;;
74465;SDS011;62916;50.044;15.938;2022-12-01T10:38:23;7.40;;;4.50;;
74465;SDS011;62916;50.044;15.938;2022-12-01T10:40:56;9.20;;;5.10;;
74465;SDS011;62916;50.044;15.938;2022-12-01T10:43:30;8.90;;;4.80;;
74465;SDS011;62916;50.044;15.938;2022-12-01T10:46:18;8.70;;;5.00;;
74465;SDS011;62916;50.044;15.938;2022-12-01T10:48:52;8.60;;;4.80;;
74465;SDS011;62916;50.044;15.938;2022-12-01T10:51:25;8.80;;;5.20;;
74465;SDS011;62916;50.044;15.938;2022-12-01T10:54:05;10.00;;;5.00;;
74465;SDS011;62916;50.044;15.938;2022-12-01T10:56:39;7.90;;;5.00;;
74465;SDS011;62916;50.044;15.938;2022-12-01T11:02:02;9.10;;;5.10;;
74465;SDS011;62916;50.044;15.938;2022-12-01T11:04:45;8.90;;;5.10;;
74465;SDS011;62916;50.044;15.938;2022-12-01T11:07:22;10.20;;;5.20;;
74465;SDS011;62916;50.044;15.938;2022-12-01T11:10:00;8.00;;;5.10;;
74465;SDS011;62916;50.044;15.938;2022-12-01T11:12:40;8.50;;;4.60;;
74465;SDS011;62916;50.044;15.938;2022-12-01T11:15:18;8.50;;;4.90;;
74465;SDS011;62916;50.044;15.938;2022-12-01T11:17:56;8.10;;;5.40;;
74465;SDS011;62916;50.044;15.938;2022-12-01T11:20:33;8.20;;;4.90;;
74465;SDS011;62916;50.044;15.938;2022-12-01T11:23:20;9.30;;;5.50;;
74465;SDS011;62916;50.044;15.938;2022-12-01T11:25:57;8.10;;;5.00;;
74465;SDS011;62916;50.044;15.938;2022-12-01T11:28:31;6.70;;;4.90;;
74465;SDS011;62916;50.044;15.938;2022-12-01T11:31:03;9.30;;;4.70;;
74465;SDS011;62916;50.044;15.938;2022-12-01T11:33:38;8.30;;;5.20;;
74465;SDS011;62916;50.044;15.938;2022-12-01T11:36:22;8.60;;;5.10;;
74465;SDS011;62916;50.044;15.938;2022-12-01T11:38:58;8.30;;;4.70;;
74465;SDS011;62916;50.044;15.938;2022-12-01T11:41:32;7.80;;;5.20;;
74465;SDS011;62916;50.044;15.938;2022-12-01T11:44:06;9.10;;;5.10;;
74465;SDS011;62916;50.044;15.938;2022-12-01T11:47:13;7.10;;;4.90;;
74465;SDS011;62916;50.044;15.938;2022-12-01T11:49:53;8.50;;;5.10;;
74465;SDS011;62916;50.044;15.938;2022-12-01T11:52:27;6.80;;;4.20;;
74465;SDS011;62916;50.044;15.938;2022-12-01T11:55:00;8.20;;;4.90;;
74465;SDS011;62916;50.044;15.938;2022-12-01T11:57:48;7.40;;;4.10;;
74465;SDS011;62916;50.044;15.938;2022-12-01T12:00:21;6.80;;;4.80;;
74465;SDS011;62916;50.044;15.938;2022-12-01T12:03:00;8.20;;;4.30;;
74465;SDS011;62916;50.044;15.938;2022-12-01T12:09:10;7.90;;;4.80;;
74465;SDS011;62916;50.044;15.938;2022-12-01T12:11:52;7.00;;;4.40;;
74465;SDS011;62916;50.044;15.938;2022-12-01T12:17:32;7.70;;;4.30;;
74465;SDS011;62916;50.044;15.938;2022-12-01T12:20:22;7.40;;;4.80;;
74465;SDS011;62916;50.044;15.938;2022-12-01T12:23:08;8.60;;;4.70;;
74465;SDS011;62916;50.044;15.938;2022-12-01T12:25:54;7.40;;;4.70;;
74465;SDS011;62916;50.044;15.938;2022-12-01T12:28:36;7.30;;;4.90;;
74465;SDS011;62916;50.044;15.938;2022-12-01T12:31:16;8.30;;;5.10;;
74465;SDS011;62916;50.044;15.938;2022-12-01T12:34:01;6.70;;;4.50;;
74465;SDS011;62916;50.044;15.938;2022-12-01T12:36:53;8.50;;;4.90;;
74465;SDS011;62916;50.044;15.938;2022-12-01T12:39:44;6.80;;;4.70;;
74465;SDS011;62916;50.044;15.938;2022-12-01T12:42:40;7.00;;;4.40;;
74465;SDS011;62916;50.044;15.938;2022-12-01T12:45:22;7.00;;;4.60;;
74465;SDS011;62916;50.044;15.938;2022-12-01T12:48:06;8.20;;;5.00;;
74465;SDS011;62916;50.044;15.938;2022-12-01T12:50:50;11.10;;;5.40;;
74465;SDS011;62916;50.044;15.938;2022-12-01T12:53:31;8.10;;;5.20;;
74465;SDS011;62916;50.044;15.938;2022-12-01T12:56:07;9.40;;;5.00;;
74465;SDS011;62916;50.044;15.938;2022-12-01T12:58:43;8.60;;;5.10;;
74465;SDS011;62916;50.044;15.938;2022-12-01T13:01:24;7.90;;;4.60;;
74465;SDS011;62916;50.044;15.938;2022-12-01T13:03:59;8.80;;;5.60;;
74465;SDS011;62916;50.044;15.938;2022-12-01T13:06:33;8.40;;;5.10;;
74465;SDS011;62916;50.044;15.938;2022-12-01T13:09:10;8.60;;;5.50;;
74465;SDS011;62916;50.044;15.938;2022-12-01T13:11:45;9.70;;;6.40;;
74465;SDS011;62916;50.044;15.938;2022-12-01T13:14:22;10.50;;;5.50;;
74465;SDS011;62916;50.044;15.938;2022-12-01T13:16:57;8.80;;;5.40;;
74465;SDS011;62916;50.044;15.938;2022-12-01T13:19:34;9.80;;;6.10;;
74465;SDS011;62916;50.044;15.938;2022-12-01T13:22:08;9.60;;;5.00;;
74465;SDS011;62916;50.044;15.938;2022-12-01T13:24:43;9.80;;;5.60;;
74465;SDS011;62916;50.044;15.938;2022-12-01T13:27:15;8.30;;;5.40;;
74465;SDS011;62916;50.044;15.938;2022-12-01T13:29:49;10.60;;;6.20;;
74465;SDS011;62916;50.044;15.938;2022-12-01T13:32:27;9.60;;;5.70;;
74465;SDS011;62916;50.044;15.938;2022-12-01T13:35:04;8.90;;;5.30;;
74465;SDS011;62916;50.044;15.938;2022-12-01T13:37:50;9.60;;;5.40;;
74465;SDS011;62916;50.044;15.938;2022-12-01T13:40:22;8.60;;;5.70;;
74465;SDS011;62916;50.044;15.938;2022-12-01T13:42:58;8.80;;;5.40;;
74465;SDS011;62916;50.044;15.938;2022-12-01T13:45:37;10.20;;;5.80;;
74465;SDS011;62916;50.044;15.938;2022-12-01T13:51:16;10.00;;;6.30;;
74465;SDS011;62916;50.044;15.938;2022-12-01T13:57:00;8.60;;;5.40;;
74465;SDS011;62916;50.044;15.938;2022-12-01T14:06:06;9.50;;;5.50;;
74465;SDS011;62916;50.044;15.938;2022-12-01T14:08:53;8.40;;;5.50;;
74465;SDS011;62916;50.044;15.938;2022-12-01T14:11:29;9.00;;;5.90;;
74465;SDS011;62916;50.044;15.938;2022-12-01T14:14:08;10.20;;;6.00;;
74465;SDS011;62916;50.044;15.938;2022-12-01T14:16:52;8.70;;;5.90;;
74465;SDS011;62916;50.044;15.938;2022-12-01T14:19:29;9.60;;;6.10;;
74465;SDS011;62916;50.044;15.938;2022-12-01T14:22:05;9.90;;;6.30;;
74465;SDS011;62916;50.044;15.938;2022-12-01T14:24:59;11.20;;;6.10;;
74465;SDS011;62916;50.044;15.938;2022-12-01T14:27:36;8.50;;;5.30;;
74465;SDS011;62916;50.044;15.938;2022-12-01T14:33:49;10.10;;;6.10;;
74465;SDS011;62916;50.044;15.938;2022-12-01T14:36:31;9.50;;;6.10;;
74465;SDS011;62916;50.044;15.938;2022-12-01T14:39:11;9.80;;;5.90;;
74465;SDS011;62916;50.044;15.938;2022-12-01T14:41:47;10.20;;;6.70;;
74465;SDS011;62916;50.044;15.938;2022-12-01T14:44:23;11.60;;;6.60;;
74465;SDS011;62916;50.044;15.938;2022-12-01T14:47:07;9.70;;;6.10;;
74465;SDS011;62916;50.044;15.938;2022-12-01T14:49:43;9.00;;;5.80;;
74465;SDS011;62916;50.044;15.938;2022-12-01T14:52:23;10.90;;;6.70;;
74465;SDS011;62916;50.044;15.938;2022-12-01T14:57:31;11.10;;;6.10;;
74465;SDS011;62916;50.044;15.938;2022-12-01T15:00:10;11.30;;;6.90;;
74465;SDS011;62916;50.044;15.938;2022-12-01T15:02:46;10.60;;;6.70;;
74465;SDS011;62916;50.044;15.938;2022-12-01T15:05:21;10.10;;;6.40;;
74465;SDS011;62916;50.044;15.938;2022-12-01T15:07:55;10.20;;;6.20;;
74465;SDS011;62916;50.044;15.938;2022-12-01T15:10:51;9.80;;;6.60;;
74465;SDS011;62916;50.044;15.938;2022-12-01T15:13:24;10.80;;;6.00;;
74465;SDS011;62916;50.044;15.938;2022-12-01T15:15:58;10.00;;;6.20;;
74465;SDS011;62916;50.044;15.938;2022-12-01T15:18:32;10.90;;;6.70;;
74465;SDS011;62916;50.044;15.938;2022-12-01T15:21:05;8.60;;;5.60;;
74465;SDS011;62916;50.044;15.938;2022-12-01T15:23:52;10.50;;;6.90;;
74465;SDS011;62916;50.044;15.938;2022-12-01T15:26:25;12.90;;;7.60;;
74465;SDS011;62916;50.044;15.938;2022-12-01T15:29:04;11.20;;;6.90;;
74465;SDS011;62916;50.044;15.938;2022-12-01T15:31:44;11.70;;;6.90;;
74465;SDS011;62916;50.044;15.938;2022-12-01T15:34:18;13.00;;;7.40;;
74465;SDS011;62916;50.044;15.938;2022-12-01T15:36:51;9.50;;;6.50;;
74465;SDS011;62916;50.044;15.938;2022-12-01T15:39:24;12.30;;;7.00;;
74465;SDS011;62916;50.044;15.938;2022-12-01T15:42:00;11.10;;;7.80;;
74465;SDS011;62916;50.044;15.938;2022-12-01T15:44:33;10.30;;;7.20;;
74465;SDS011;62916;50.044;15.938;2022-12-01T15:52:42;16.00;;;7.90;;
74465;SDS011;62916;50.044;15.938;2022-12-01T15:55:23;15.40;;;7.40;;